Etusivu
METAR-TAF:

METAR-TAF

Lentoasemat :

Gran Canaria, Espanja

Gran Canarian lentoasema

Leveyspiiri: 27-56N, Pituuspiiri: 015-23W, korkeus merenpinnasta: 23 m

Tämänhetkinen sää

Tämä raportti tehtiin 43 minuuttia sitten, kello 23.00 UTC
Tuuli 13 kn pohjoisen/luoteesta
Lämpötila 18°C
Kosteus 73%
Ilmanpaine 1022 hPa
Näkyvyys 10 km tai enemmän
Muutamia pilviä 4000 ft:n korkeudessa

METAR: GCLP 172300Z 34013KT 9999 FEW040 18/13 Q1022 NOSIG

Aika: 23:43 (23:43 UTC)

Sääennuste

Tämä raportti tehtiin 3 tuntia ja 43 minuuttia sitten, kello 20.00 UTC
Ennuste voimassa 17. päivästä klo 21 UTC - 18. päivään klo 21 UTC
Tuuli 20 kn pohjoisesta
Näkyvyys 10 km tai enemmän
Hajanaisia pilviä 3000 ft:n korkeudessa

TAF: GCLP 172000Z 1721/1821 36020KT 9999 SCT030 TX21/1814Z TN16/1806Z

Säähavainnot ja -ennusteet yli 4000 lentoasemalta (METAR- ja TAF-raportit).

Käytössä olevat sääasemat on merkitty karttaan keltaisilla ja punaisilla pisteillä.

Aseta hiiri pisteen päälle nähdäksesi sääaseman nimen.

Klikkaa sitten nähdäksesi säähavainnot ja -ennusteet.

Kartan vaihtaminen: klikkaa mustalla rastilla varustettuja vihreitä pisteitä, niin voit zoomata sisään; viivalla varustettua vihreää pistettä, niin voit zoomata ulos tai vihreitä nuolia, niin pääset viereisille kartoille.


METAR-TAF: